createdAt,value
2017-09-25T00:00:23.599Z,16.35
2017-09-25T00:01:32.435Z,16.38
2017-09-25T00:02:41.276Z,16.28
2017-09-25T00:03:50.110Z,16.39
2017-09-25T00:04:58.945Z,16.33
2017-09-25T00:06:07.786Z,16.31
2017-09-25T00:07:16.621Z,16.38
2017-09-25T00:08:25.449Z,16.35
2017-09-25T00:09:34.294Z,16.34
2017-09-25T00:10:43.125Z,16.34
2017-09-25T00:11:51.970Z,16.31
2017-09-25T00:13:00.804Z,16.25
2017-09-25T00:14:09.641Z,16.25
2017-09-25T00:15:18.476Z,16.3
2017-09-25T00:16:27.310Z,16.28
2017-09-25T00:17:36.145Z,16.24
2017-09-25T00:18:44.986Z,16.3
2017-09-25T00:19:53.824Z,16.21
2017-09-25T00:21:02.657Z,16.23
2017-09-25T00:22:11.495Z,16.2
2017-09-25T00:23:20.335Z,16.21
2017-09-25T00:24:29.170Z,16.28
2017-09-25T00:25:38.005Z,16.24
2017-09-25T00:26:46.837Z,16.2
2017-09-25T00:27:55.672Z,16.23
2017-09-25T00:29:04.506Z,16.21
2017-09-25T00:30:13.344Z,16.23
2017-09-25T00:31:22.181Z,16.21
2017-09-25T00:32:31.019Z,16.2
2017-09-25T00:33:39.854Z,16.17
2017-09-25T00:34:48.692Z,16.15
2017-09-25T00:35:57.529Z,16.24
2017-09-25T00:37:06.369Z,16.17
2017-09-25T00:38:15.196Z,16.2
2017-09-25T00:39:24.034Z,16.17
2017-09-25T00:40:33.190Z,16.21
2017-09-25T00:41:42.031Z,16.14
2017-09-25T00:42:50.865Z,16.14
2017-09-25T00:43:59.703Z,16.14
2017-09-25T00:45:08.533Z,16.17
2017-09-25T00:46:17.372Z,16.21
2017-09-25T00:47:26.205Z,16.21
2017-09-25T00:48:35.049Z,16.07
2017-09-25T00:49:43.888Z,16.04
2017-09-25T00:50:52.721Z,16.21
2017-09-25T00:52:01.557Z,16.14
2017-09-25T00:53:10.391Z,16.07
2017-09-25T00:54:19.229Z,16.12
2017-09-25T00:55:28.065Z,16.15
2017-09-25T00:56:36.904Z,16.09
2017-09-25T00:57:45.742Z,16.05
2017-09-25T00:58:54.577Z,16.05
2017-09-25T01:00:03.420Z,16.14
2017-09-25T01:01:12.577Z,16.07
2017-09-25T01:02:21.416Z,16.12
2017-09-25T01:03:30.248Z,16.14
2017-09-25T01:04:39.080Z,16.09
2017-09-25T01:05:47.920Z,16.12
2017-09-25T01:06:56.753Z,16.08
2017-09-25T01:08:05.592Z,16.08
2017-09-25T01:09:14.426Z,16.09
2017-09-25T01:10:23.268Z,16.02
2017-09-25T01:11:32.100Z,15.97
2017-09-25T01:12:41.259Z,16.02
2017-09-25T01:13:50.094Z,15.97
2017-09-25T01:14:58.932Z,16.04
2017-09-25T01:16:08.086Z,15.94
2017-09-25T01:17:17.246Z,16.01
2017-09-25T01:18:26.086Z,16.05
2017-09-25T01:19:34.918Z,15.93
2017-09-25T01:20:43.757Z,16.01
2017-09-25T01:21:52.594Z,16.01
2017-09-25T01:23:01.425Z,15.96
2017-09-25T01:24:10.266Z,15.96
2017-09-25T01:25:19.097Z,15.94
2017-09-25T01:26:27.934Z,15.83
2017-09-25T01:27:36.766Z,15.87
2017-09-25T01:28:45.608Z,15.94
2017-09-25T01:29:54.446Z,15.96
2017-09-25T01:31:03.291Z,15.93
2017-09-25T01:32:12.124Z,15.89
2017-09-25T01:33:20.959Z,15.89
2017-09-25T01:34:29.800Z,15.89
2017-09-25T01:35:38.635Z,15.86
2017-09-25T01:36:47.801Z,15.89
2017-09-25T01:37:56.637Z,15.89
2017-09-25T01:39:05.475Z,15.86
2017-09-25T01:40:14.310Z,15.87
2017-09-25T01:41:23.148Z,15.87
2017-09-25T01:42:31.983Z,15.9
2017-09-25T01:43:40.817Z,15.83
2017-09-25T01:44:49.654Z,15.83
2017-09-25T01:45:58.490Z,15.78
2017-09-25T01:47:07.649Z,15.83
2017-09-25T01:48:16.485Z,15.76
2017-09-25T01:49:25.327Z,15.78
2017-09-25T01:50:34.161Z,15.8
2017-09-25T01:51:42.993Z,15.75
2017-09-25T01:52:51.831Z,15.86
2017-09-25T01:54:00.663Z,15.76
2017-09-25T01:55:09.499Z,15.83
2017-09-25T01:56:18.338Z,15.82
2017-09-25T01:57:27.175Z,15.76
2017-09-25T01:58:36.010Z,15.68
2017-09-25T01:59:44.847Z,15.68
2017-09-25T02:00:53.678Z,15.71
2017-09-25T02:02:02.516Z,15.72
2017-09-25T02:03:11.355Z,15.68
2017-09-25T02:04:20.184Z,15.72
2017-09-25T02:05:29.020Z,15.75
2017-09-25T02:06:37.861Z,15.71
2017-09-25T02:07:46.692Z,15.75
2017-09-25T02:08:55.534Z,15.71
2017-09-25T02:10:04.368Z,15.83
2017-09-25T02:11:13.202Z,15.83
2017-09-25T02:12:22.037Z,15.69
2017-09-25T02:13:30.892Z,15.76
2017-09-25T02:14:39.724Z,15.72
2017-09-25T02:15:48.558Z,15.69
2017-09-25T02:16:57.388Z,15.72
2017-09-25T02:18:06.222Z,15.75
2017-09-25T02:19:15.058Z,15.74
2017-09-25T02:20:23.889Z,15.68
2017-09-25T02:21:32.728Z,15.71
2017-09-25T02:22:41.561Z,15.68
2017-09-25T02:23:50.398Z,15.68
2017-09-25T02:24:59.235Z,15.65
2017-09-25T02:26:08.071Z,15.68
2017-09-25T02:27:16.905Z,15.68
2017-09-25T02:28:25.739Z,15.64
2017-09-25T02:29:34.572Z,15.59
2017-09-25T02:30:43.411Z,15.54
2017-09-25T02:31:52.247Z,15.6
2017-09-25T02:33:01.083Z,15.56
2017-09-25T02:34:09.922Z,15.57
2017-09-25T02:35:18.753Z,15.54
2017-09-25T02:36:27.590Z,15.56
2017-09-25T02:37:36.420Z,15.57
2017-09-25T02:38:45.260Z,15.56
2017-09-25T02:39:54.097Z,15.47
2017-09-25T02:41:02.929Z,15.46
2017-09-25T02:42:11.766Z,15.51
2017-09-25T02:43:20.602Z,15.57
2017-09-25T02:44:29.763Z,15.57
2017-09-25T02:45:38.925Z,15.54
2017-09-25T02:46:47.766Z,15.5
2017-09-25T02:47:56.598Z,15.6
2017-09-25T02:49:05.432Z,15.64
2017-09-25T02:50:14.272Z,15.51
2017-09-25T02:51:23.106Z,15.47
2017-09-25T02:52:31.944Z,15.53
2017-09-25T02:53:40.782Z,15.59
2017-09-25T02:54:49.614Z,15.53
2017-09-25T02:55:58.453Z,15.51
2017-09-25T02:57:07.288Z,15.6
2017-09-25T02:58:16.124Z,15.64
2017-09-25T02:59:24.961Z,15.59
2017-09-25T03:00:33.798Z,15.53
2017-09-25T03:01:42.631Z,15.47
2017-09-25T03:02:51.468Z,15.57
2017-09-25T03:04:00.304Z,15.6
2017-09-25T03:05:09.137Z,15.59
2017-09-25T03:06:18.033Z,15.57
2017-09-25T03:07:26.890Z,15.56
2017-09-25T03:08:35.743Z,15.56
2017-09-25T03:09:44.597Z,15.64
2017-09-25T03:10:53.454Z,15.6
2017-09-25T03:12:02.313Z,15.57
2017-09-25T03:13:11.488Z,15.6
2017-09-25T03:14:20.346Z,15.57
2017-09-25T03:15:29.196Z,15.51
2017-09-25T03:16:38.050Z,15.51
2017-09-25T03:17:46.906Z,15.67
2017-09-25T03:18:55.763Z,15.6
2017-09-25T03:20:04.616Z,15.57
2017-09-25T03:21:13.472Z,15.6
2017-09-25T03:22:22.325Z,15.68
2017-09-25T03:23:31.178Z,15.64
2017-09-25T03:24:40.033Z,15.68
2017-09-25T03:25:48.890Z,15.71
2017-09-25T03:26:57.745Z,15.68
2017-09-25T03:28:06.601Z,15.65
2017-09-25T03:29:15.454Z,15.68
2017-09-25T03:30:24.310Z,15.56
2017-09-25T03:31:33.168Z,15.64
2017-09-25T03:32:42.023Z,15.72
2017-09-25T03:33:50.875Z,15.69
2017-09-25T03:34:59.728Z,15.69
2017-09-25T03:36:08.585Z,15.69
2017-09-25T03:37:17.437Z,15.65
2017-09-25T03:38:26.295Z,15.74
2017-09-25T03:39:35.152Z,15.71
2017-09-25T03:40:44.004Z,15.69
2017-09-25T03:41:52.856Z,15.69
2017-09-25T03:43:01.713Z,15.67
2017-09-25T03:44:10.572Z,15.68
2017-09-25T03:45:19.424Z,15.71
2017-09-25T03:46:28.278Z,15.68
2017-09-25T03:47:37.135Z,15.71
2017-09-25T03:48:45.992Z,15.67
2017-09-25T03:49:55.171Z,15.62
2017-09-25T03:51:04.024Z,15.67
2017-09-25T03:52:12.880Z,15.59
2017-09-25T03:53:21.736Z,15.69
2017-09-25T03:54:30.588Z,15.57
2017-09-25T03:55:39.441Z,15.64
2017-09-25T03:56:48.296Z,15.56
2017-09-25T03:57:57.149Z,15.57
2017-09-25T03:59:06.003Z,15.59
2017-09-25T04:00:14.861Z,15.56
2017-09-25T04:01:23.715Z,15.59
2017-09-25T04:02:32.570Z,15.59
2017-09-25T04:03:41.426Z,15.62
2017-09-25T04:04:50.280Z,15.59
2017-09-25T04:05:59.136Z,15.68
2017-09-25T04:07:07.991Z,15.67
2017-09-25T04:08:16.845Z,15.68
2017-09-25T04:09:25.697Z,15.56
2017-09-25T04:10:34.554Z,15.59
2017-09-25T04:11:43.411Z,15.5
2017-09-25T04:12:52.266Z,15.6
2017-09-25T04:14:01.121Z,15.56
2017-09-25T04:15:09.975Z,15.67
2017-09-25T04:16:18.830Z,15.67
2017-09-25T04:17:27.685Z,15.65
2017-09-25T04:18:36.543Z,15.68
2017-09-25T04:19:45.396Z,15.68
2017-09-25T04:20:54.255Z,15.71
2017-09-25T04:22:03.111Z,15.69
2017-09-25T04:23:11.964Z,15.72
2017-09-25T04:24:20.822Z,15.68
2017-09-25T04:25:29.679Z,15.65
2017-09-25T04:26:38.532Z,15.71
2017-09-25T04:27:47.387Z,15.69
2017-09-25T04:28:56.239Z,15.67
2017-09-25T04:30:05.094Z,15.62
2017-09-25T04:31:14.271Z,15.67
2017-09-25T04:32:23.128Z,15.59
2017-09-25T04:33:31.981Z,15.68
2017-09-25T04:34:40.836Z,15.54
2017-09-25T04:35:49.691Z,15.56
2017-09-25T04:36:58.540Z,15.5
2017-09-25T04:38:07.397Z,15.53
2017-09-25T04:39:16.254Z,15.44
2017-09-25T04:40:25.110Z,15.5
2017-09-25T04:41:33.966Z,15.44
2017-09-25T04:42:42.821Z,15.51
2017-09-25T04:43:51.676Z,15.5
2017-09-25T04:45:00.533Z,15.49
2017-09-25T04:46:09.390Z,15.46
2017-09-25T04:47:18.241Z,15.46
2017-09-25T04:48:27.418Z,15.35
2017-09-25T04:49:36.274Z,15.41
2017-09-25T04:50:45.130Z,15.35
2017-09-25T04:51:53.984Z,15.36
2017-09-25T04:53:02.842Z,15.34
2017-09-25T04:54:12.023Z,15.38
2017-09-25T04:55:20.878Z,15.35
2017-09-25T04:56:29.737Z,15.38
2017-09-25T04:57:38.594Z,15.44
2017-09-25T04:58:47.452Z,15.35
2017-09-25T04:59:56.311Z,15.35
2017-09-25T05:01:05.161Z,15.38
2017-09-25T05:02:14.016Z,15.31
2017-09-25T05:03:22.871Z,15.34
2017-09-25T05:04:31.722Z,15.28
2017-09-25T05:05:40.906Z,15.19
2017-09-25T05:06:49.763Z,15.19
2017-09-25T05:07:58.616Z,15.2
2017-09-25T05:09:07.468Z,15.14
2017-09-25T05:10:16.326Z,15.23
2017-09-25T05:11:25.177Z,15.23
2017-09-25T05:12:34.033Z,15.21
2017-09-25T05:13:42.888Z,15.14
2017-09-25T05:14:51.742Z,15.11
2017-09-25T05:16:00.595Z,15.11
2017-09-25T05:17:09.449Z,15.02
2017-09-25T05:18:18.301Z,14.96
2017-09-25T05:19:27.486Z,15.06
2017-09-25T05:20:36.341Z,15.06
2017-09-25T05:21:45.193Z,15.11
2017-09-25T05:22:54.046Z,15.1
2017-09-25T05:24:02.899Z,15.02
2017-09-25T05:25:11.755Z,15.09
2017-09-25T05:26:20.610Z,15.11
2017-09-25T05:27:29.468Z,15.17
2017-09-25T05:28:38.321Z,15.16
2017-09-25T05:29:47.173Z,15.1
2017-09-25T05:30:56.029Z,15.07
2017-09-25T05:32:04.884Z,15.03
2017-09-25T05:33:13.743Z,15.11
2017-09-25T05:34:22.597Z,15.11
2017-09-25T05:35:31.449Z,15.09
2017-09-25T05:36:40.302Z,15.17
2017-09-25T05:37:49.158Z,15.03
2017-09-25T05:38:58.012Z,15.13
2017-09-25T05:40:06.865Z,15.06
2017-09-25T05:41:15.720Z,15.02
2017-09-25T05:42:24.573Z,15.03
2017-09-25T05:43:33.425Z,15.02
2017-09-25T05:44:42.280Z,15.06
2017-09-25T05:45:51.139Z,15.01
2017-09-25T05:46:59.990Z,14.99
2017-09-25T05:48:08.847Z,15.03
2017-09-25T05:49:17.698Z,15.06
2017-09-25T05:50:26.550Z,15.07
2017-09-25T05:51:35.406Z,14.98
2017-09-25T05:52:44.263Z,15.06
2017-09-25T05:53:53.118Z,15.03
2017-09-25T05:55:01.975Z,15.06
2017-09-25T05:56:10.827Z,15.03
2017-09-25T05:57:19.679Z,15.07
2017-09-25T05:58:28.860Z,15.1
2017-09-25T05:59:37.717Z,15.14
2017-09-25T06:00:46.571Z,15.11
2017-09-25T06:01:55.755Z,15.17
2017-09-25T06:03:04.614Z,15.1
2017-09-25T06:04:13.468Z,15.01
2017-09-25T06:05:22.355Z,15.07
2017-09-25T06:06:31.184Z,15.09
2017-09-25T06:07:40.033Z,15.13
2017-09-25T06:08:48.887Z,15.02
2017-09-25T06:09:57.746Z,15.03
2017-09-25T06:11:06.602Z,15.11
2017-09-25T06:12:15.458Z,15.03
2017-09-25T06:13:24.315Z,15.01
2017-09-25T06:14:33.167Z,15.11
2017-09-25T06:15:42.023Z,15.1
2017-09-25T06:16:50.879Z,14.99
2017-09-25T06:17:59.734Z,15.07
2017-09-25T06:19:08.592Z,15.01
2017-09-25T06:20:17.775Z,15.06
2017-09-25T06:21:26.629Z,15.07
2017-09-25T06:22:35.482Z,15.02
2017-09-25T06:23:44.338Z,15.07
2017-09-25T06:24:53.189Z,14.94
2017-09-25T06:26:02.045Z,14.99
2017-09-25T06:27:10.902Z,15.02
2017-09-25T06:28:19.757Z,15.01
2017-09-25T06:29:28.613Z,15.01
2017-09-25T06:30:37.465Z,14.99
2017-09-25T06:31:46.319Z,15.06
2017-09-25T06:32:55.172Z,15.03
2017-09-25T06:34:04.024Z,15.02
2017-09-25T06:35:12.885Z,14.99
2017-09-25T06:36:22.063Z,15.09
2017-09-25T06:37:31.238Z,15.02
2017-09-25T06:38:40.092Z,15.13
2017-09-25T06:39:49.274Z,15.2
2017-09-25T06:40:58.125Z,15.17
2017-09-25T06:42:06.978Z,15.17
2017-09-25T06:43:15.834Z,15.2
2017-09-25T06:44:24.689Z,15.2
2017-09-25T06:45:33.542Z,15.27
2017-09-25T06:46:42.398Z,15.17
2017-09-25T06:47:51.252Z,15.25
2017-09-25T06:49:00.109Z,15.23
2017-09-25T06:50:08.963Z,15.23
2017-09-25T06:51:17.814Z,15.17
2017-09-25T06:52:26.666Z,15.17
2017-09-25T06:53:35.521Z,15.16
2017-09-25T06:54:44.374Z,15.16
2017-09-25T06:55:53.232Z,15.16
2017-09-25T06:57:02.089Z,15.19
2017-09-25T06:58:10.942Z,15.16
2017-09-25T06:59:19.792Z,15.14
2017-09-25T07:00:28.648Z,15.17
2017-09-25T07:01:37.505Z,15.17
2017-09-25T07:02:46.361Z,15.19
2017-09-25T07:03:55.218Z,15.21
2017-09-25T07:05:04.073Z,15.17
2017-09-25T07:06:12.925Z,15.23
2017-09-25T07:07:22.109Z,15.38
2017-09-25T07:08:30.992Z,15.34
2017-09-25T07:09:39.817Z,15.35
2017-09-25T07:10:48.674Z,15.34
2017-09-25T07:11:57.531Z,15.34
2017-09-25T07:13:06.382Z,15.41
2017-09-25T07:14:15.236Z,15.38
2017-09-25T07:15:24.417Z,15.34
2017-09-25T07:16:33.270Z,15.28
2017-09-25T07:17:42.127Z,15.39
2017-09-25T07:18:50.981Z,15.29
2017-09-25T07:19:59.835Z,15.36
2017-09-25T07:21:08.691Z,15.38
2017-09-25T07:22:17.546Z,15.35
2017-09-25T07:23:26.401Z,15.41
2017-09-25T07:24:35.256Z,15.34
2017-09-25T07:25:44.111Z,15.36
2017-09-25T07:26:52.963Z,15.35
2017-09-25T07:28:01.823Z,15.39
2017-09-25T07:29:11.324Z,15.44
2017-09-25T07:30:20.176Z,15.47
2017-09-25T07:31:29.030Z,15.35
2017-09-25T07:32:37.884Z,15.39
2017-09-25T07:33:46.736Z,15.38
2017-09-25T07:34:55.596Z,15.43
2017-09-25T07:36:04.775Z,15.39
2017-09-25T07:37:13.955Z,15.29
2017-09-25T07:38:22.811Z,15.35
2017-09-25T07:39:31.992Z,15.41
2017-09-25T07:40:40.847Z,15.36
2017-09-25T07:41:49.702Z,15.39
2017-09-25T07:42:58.558Z,15.46
2017-09-25T07:44:07.738Z,15.43
2017-09-25T07:45:16.594Z,15.47
2017-09-25T07:46:25.446Z,15.46
2017-09-25T07:47:34.298Z,15.44
2017-09-25T07:48:43.156Z,15.46
2017-09-25T07:49:52.018Z,15.47
2017-09-25T07:51:00.869Z,15.46
2017-09-25T07:52:09.725Z,15.47
2017-09-25T07:53:18.904Z,15.47
2017-09-25T07:54:27.759Z,15.44
2017-09-25T07:55:36.616Z,15.44
2017-09-25T07:56:45.473Z,15.59
2017-09-25T07:57:54.324Z,15.6
2017-09-25T07:59:03.177Z,15.65
2017-09-25T08:00:12.034Z,15.64
2017-09-25T08:01:20.884Z,15.57
2017-09-25T08:02:29.741Z,15.69
2017-09-25T08:03:38.600Z,15.69
2017-09-25T08:04:47.456Z,15.69
2017-09-25T08:05:56.309Z,15.54
2017-09-25T08:07:05.166Z,15.67
2017-09-25T08:08:14.019Z,15.72
2017-09-25T08:09:22.877Z,15.74
2017-09-25T08:10:32.058Z,15.72
2017-09-25T08:11:40.912Z,15.67
2017-09-25T08:12:49.765Z,15.56
2017-09-25T08:13:58.623Z,15.47
2017-09-25T08:15:07.804Z,15.46
2017-09-25T08:16:16.664Z,15.38
2017-09-25T08:17:25.519Z,15.31
2017-09-25T08:18:34.371Z,15.2
2017-09-25T08:19:43.223Z,15.2
2017-09-25T08:20:52.077Z,15.25
2017-09-25T08:22:00.932Z,15.23
2017-09-25T08:23:09.790Z,15.21
2017-09-25T08:24:18.647Z,15.2
2017-09-25T08:25:27.500Z,15.09
2017-09-25T08:26:36.354Z,15.14
2017-09-25T08:27:45.207Z,15.16
2017-09-25T08:28:54.060Z,15.07
2017-09-25T08:30:02.917Z,15.03
2017-09-25T08:31:12.095Z,15.02
2017-09-25T08:32:20.952Z,15.07
2017-09-25T08:33:30.135Z,15.1
2017-09-25T08:34:39.314Z,15.07
2017-09-25T08:35:48.166Z,15.07
2017-09-25T08:36:57.347Z,14.99
2017-09-25T08:38:06.203Z,15.09
2017-09-25T08:39:15.063Z,15.06
2017-09-25T08:40:23.920Z,15.11
2017-09-25T08:41:32.773Z,15.1
2017-09-25T08:42:41.627Z,15.09
2017-09-25T08:43:50.483Z,15.16
2017-09-25T08:44:59.334Z,15.09
2017-09-25T08:46:08.193Z,14.99
2017-09-25T08:47:17.374Z,15.02
2017-09-25T08:48:26.227Z,15.06
2017-09-25T08:49:35.405Z,14.98
2017-09-25T08:50:44.260Z,15.13
2017-09-25T08:51:53.113Z,15.09
2017-09-25T08:53:01.968Z,14.99
2017-09-25T08:54:10.826Z,15.09
2017-09-25T08:55:19.678Z,15.02
2017-09-25T08:56:28.530Z,15.07
2017-09-25T08:57:37.386Z,15.07
2017-09-25T08:58:46.239Z,15.02
2017-09-25T08:59:55.094Z,15.01
2017-09-25T09:01:03.957Z,15.09
2017-09-25T09:02:12.837Z,15.17
2017-09-25T09:03:21.662Z,15.19
2017-09-25T09:04:30.516Z,15.19
2017-09-25T09:05:39.376Z,15.23
2017-09-25T09:06:48.237Z,15.2
2017-09-25T09:07:57.751Z,15.23
2017-09-25T09:09:06.605Z,15.19
2017-09-25T09:10:15.456Z,15.27
2017-09-25T09:11:24.316Z,15.34
2017-09-25T09:12:33.171Z,15.31
2017-09-25T09:13:42.024Z,15.39
2017-09-25T09:14:50.880Z,15.47
2017-09-25T09:15:59.738Z,15.49
2017-09-25T09:17:08.593Z,15.47
2017-09-25T09:18:17.450Z,15.47
2017-09-25T09:19:26.312Z,15.46
2017-09-25T09:20:35.818Z,15.53
2017-09-25T09:21:44.675Z,15.5
2017-09-25T09:22:53.528Z,15.47
2017-09-25T09:24:02.381Z,15.47
2017-09-25T09:25:11.237Z,15.49
2017-09-25T09:26:20.094Z,15.47
2017-09-25T09:27:28.951Z,15.46
2017-09-25T09:28:37.807Z,15.49
2017-09-25T09:29:46.663Z,15.47
2017-09-25T09:30:55.515Z,15.49
2017-09-25T09:32:04.372Z,15.47
2017-09-25T09:33:13.553Z,15.46
2017-09-25T09:34:22.407Z,15.5
2017-09-25T09:35:31.264Z,15.59
2017-09-25T09:36:40.117Z,15.56
2017-09-25T09:37:48.971Z,15.6
2017-09-25T09:38:57.829Z,15.67
2017-09-25T09:40:06.685Z,15.65
2017-09-25T09:41:15.539Z,15.69
2017-09-25T09:42:24.391Z,15.68
2017-09-25T09:43:33.247Z,15.68
2017-09-25T09:44:42.430Z,15.65
2017-09-25T09:45:51.285Z,15.68
2017-09-25T09:47:00.143Z,15.68
2017-09-25T09:48:08.995Z,15.57
2017-09-25T09:49:17.847Z,15.56
2017-09-25T09:50:26.704Z,15.6
2017-09-25T09:51:35.558Z,15.64
2017-09-25T09:52:44.414Z,15.5
2017-09-25T09:53:53.271Z,15.5
2017-09-25T09:55:02.127Z,15.59
2017-09-25T09:56:10.984Z,15.44
2017-09-25T09:57:19.840Z,15.46
2017-09-25T09:58:28.694Z,15.46
2017-09-25T09:59:37.546Z,15.38
2017-09-25T10:00:46.401Z,15.38
2017-09-25T10:01:55.253Z,15.35
2017-09-25T10:03:04.107Z,15.44
2017-09-25T10:04:13.288Z,15.39
2017-09-25T10:05:22.142Z,15.35
2017-09-25T10:06:31.325Z,15.34
2017-09-25T10:07:40.181Z,15.32
2017-09-25T10:08:49.034Z,15.38
2017-09-25T10:09:57.888Z,15.36
2017-09-25T10:11:06.745Z,15.36
2017-09-25T10:12:15.623Z,15.36
2017-09-25T10:13:24.456Z,15.34
2017-09-25T10:14:33.315Z,15.39
2017-09-25T10:15:42.168Z,15.35
2017-09-25T10:16:51.024Z,15.39
2017-09-25T10:17:59.883Z,15.47
2017-09-25T10:19:08.739Z,15.47
2017-09-25T10:20:17.592Z,15.44
2017-09-25T10:21:26.447Z,15.43
2017-09-25T10:22:35.302Z,15.46
2017-09-25T10:23:44.158Z,15.47
2017-09-25T10:24:53.340Z,15.44
2017-09-25T10:26:02.192Z,15.5
2017-09-25T10:27:11.051Z,15.44
2017-09-25T10:28:19.905Z,15.36
2017-09-25T10:29:28.763Z,15.32
2017-09-25T10:30:37.622Z,15.36
2017-09-25T10:31:46.476Z,15.38
2017-09-25T10:32:55.664Z,15.41
2017-09-25T10:34:04.519Z,15.39
2017-09-25T10:35:13.383Z,15.43
2017-09-25T10:36:22.229Z,15.39
2017-09-25T10:37:31.091Z,15.43
2017-09-25T10:38:39.946Z,15.39
2017-09-25T10:39:49.121Z,15.38
2017-09-25T10:40:57.984Z,15.35
2017-09-25T10:42:06.830Z,15.43
2017-09-25T10:43:15.686Z,15.32
2017-09-25T10:44:24.542Z,15.27
2017-09-25T10:45:33.396Z,15.27
2017-09-25T10:46:42.251Z,15.2
2017-09-25T10:47:51.109Z,15.21
2017-09-25T10:48:59.963Z,15.25
2017-09-25T10:50:08.819Z,15.25
2017-09-25T10:51:17.683Z,15.25
2017-09-25T10:52:26.857Z,15.38
2017-09-25T10:53:35.712Z,15.32
2017-09-25T10:54:44.899Z,15.25
2017-09-25T10:55:53.756Z,15.21
2017-09-25T10:57:02.608Z,15.19
2017-09-25T10:58:11.466Z,15.19
2017-09-25T10:59:20.319Z,15.13
2017-09-25T11:00:29.164Z,15.14
2017-09-25T11:01:38.002Z,15.16
2017-09-25T11:02:46.840Z,15.23
2017-09-25T11:03:55.673Z,15.19
2017-09-25T11:05:04.513Z,15.1
2017-09-25T11:06:13.344Z,15.14
2017-09-25T11:07:22.179Z,15.11
2017-09-25T11:08:31.019Z,15.11
2017-09-25T11:09:39.856Z,15.1
2017-09-25T11:10:48.695Z,15.1
2017-09-25T11:11:57.526Z,15.02
2017-09-25T11:13:06.360Z,15.02
2017-09-25T11:14:15.194Z,15.03
2017-09-25T11:15:24.031Z,15.03
2017-09-25T11:16:32.868Z,15.07
2017-09-25T11:17:41.698Z,15.11
2017-09-25T11:18:50.540Z,15.11
2017-09-25T11:19:59.374Z,15.07
2017-09-25T11:21:08.215Z,15.1
2017-09-25T11:22:17.049Z,15.13
2017-09-25T11:23:25.881Z,15.16
2017-09-25T11:24:34.713Z,15.19
2017-09-25T11:25:43.553Z,15.19
2017-09-25T11:26:52.386Z,15.25
2017-09-25T11:28:01.221Z,15.2
2017-09-25T11:29:10.058Z,15.23
2017-09-25T11:30:18.895Z,15.19
2017-09-25T11:31:27.726Z,15.09
2017-09-25T11:32:36.889Z,14.99
2017-09-25T11:33:45.722Z,15.07
2017-09-25T11:34:54.558Z,15.1
2017-09-25T11:36:03.396Z,15.19
2017-09-25T11:37:12.550Z,15.21
2017-09-25T11:38:21.386Z,15.25
2017-09-25T11:39:30.223Z,15.17
2017-09-25T11:40:39.062Z,15.28
2017-09-25T11:41:47.895Z,15.36
2017-09-25T11:42:56.732Z,15.36
2017-09-25T11:44:05.566Z,15.41
2017-09-25T11:45:14.399Z,15.39
2017-09-25T11:46:23.240Z,15.51
2017-09-25T11:47:32.071Z,15.43
2017-09-25T11:48:40.907Z,15.46
2017-09-25T11:49:49.743Z,15.47
2017-09-25T11:50:58.909Z,15.44
2017-09-25T11:52:07.747Z,15.39
2017-09-25T11:53:16.582Z,15.38
2017-09-25T11:54:25.415Z,15.41
2017-09-25T11:55:34.248Z,15.36
2017-09-25T11:56:43.083Z,15.36
2017-09-25T11:57:51.924Z,15.46
2017-09-25T11:59:00.759Z,15.49
2017-09-25T12:00:09.595Z,15.59
2017-09-25T12:01:18.428Z,15.56
2017-09-25T12:02:27.261Z,15.5
2017-09-25T12:03:36.097Z,15.49
2017-09-25T12:04:44.940Z,15.59
2017-09-25T12:05:54.100Z,15.59
2017-09-25T12:07:02.929Z,15.64
2017-09-25T12:08:11.769Z,15.56
2017-09-25T12:09:20.609Z,15.54
2017-09-25T12:10:29.442Z,15.57
2017-09-25T12:11:38.280Z,15.5
2017-09-25T12:12:47.112Z,15.49
2017-09-25T12:13:55.945Z,15.5
2017-09-25T12:15:04.781Z,15.46
2017-09-25T12:16:13.622Z,15.44
2017-09-25T12:17:22.454Z,15.47
2017-09-25T12:18:31.293Z,15.41
2017-09-25T12:19:40.122Z,15.34
2017-09-25T12:20:48.958Z,15.43
2017-09-25T12:21:57.792Z,15.32
2017-09-25T12:23:06.630Z,15.44
2017-09-25T12:24:15.461Z,15.39
2017-09-25T12:25:24.299Z,15.35
2017-09-25T12:26:33.127Z,15.38
2017-09-25T12:27:41.962Z,15.43
2017-09-25T12:28:50.800Z,15.34
2017-09-25T12:29:59.638Z,15.2
2017-09-25T12:31:08.794Z,15.23
2017-09-25T12:32:17.630Z,15.2
2017-09-25T12:33:26.464Z,15.19
2017-09-25T12:34:35.295Z,15.2
2017-09-25T12:35:44.135Z,15.2
2017-09-25T12:36:52.973Z,15.28
2017-09-25T12:38:01.806Z,15.31
2017-09-25T12:39:10.645Z,15.27
2017-09-25T12:40:19.480Z,15.2
2017-09-25T12:41:28.317Z,15.25
2017-09-25T12:42:37.152Z,15.23
2017-09-25T12:43:45.990Z,15.36
2017-09-25T12:44:54.822Z,15.29
2017-09-25T12:46:03.657Z,15.36
2017-09-25T12:47:12.493Z,15.39
2017-09-25T12:48:21.332Z,15.34
2017-09-25T12:49:30.167Z,15.46
2017-09-25T12:50:39.005Z,15.39
2017-09-25T12:51:47.843Z,15.35
2017-09-25T12:52:56.678Z,15.43
2017-09-25T12:54:05.509Z,15.41
2017-09-25T12:55:14.345Z,15.49
2017-09-25T12:56:23.181Z,15.51
2017-09-25T12:57:32.023Z,15.47
2017-09-25T12:58:40.858Z,15.34
2017-09-25T12:59:49.695Z,15.38
2017-09-25T13:00:58.530Z,15.36
2017-09-25T13:02:07.370Z,15.35
2017-09-25T13:03:16.525Z,15.41
2017-09-25T13:04:25.358Z,15.41
2017-09-25T13:05:34.197Z,15.39
2017-09-25T13:06:43.028Z,15.41
2017-09-25T13:07:51.864Z,15.35
2017-09-25T13:09:01.025Z,15.38
2017-09-25T13:10:09.863Z,15.56
2017-09-25T13:11:18.702Z,15.6
2017-09-25T13:12:27.536Z,15.59
2017-09-25T13:13:36.370Z,15.67
2017-09-25T13:14:45.206Z,15.68
2017-09-25T13:15:54.040Z,15.68
2017-09-25T13:17:03.206Z,15.68
2017-09-25T13:18:12.046Z,15.74
2017-09-25T13:19:20.881Z,15.71
2017-09-25T13:20:30.040Z,15.71
2017-09-25T13:21:39.201Z,15.67
2017-09-25T13:22:48.039Z,15.68
2017-09-25T13:23:56.872Z,15.74
2017-09-25T13:25:05.712Z,15.8
2017-09-25T13:26:14.551Z,15.78
2017-09-25T13:27:23.388Z,15.65
2017-09-25T13:28:32.227Z,15.68
2017-09-25T13:29:41.061Z,15.74
2017-09-25T13:30:49.900Z,15.78
2017-09-25T13:31:58.737Z,15.78
2017-09-25T13:33:07.575Z,15.76
2017-09-25T13:34:16.410Z,15.8
2017-09-25T13:35:25.245Z,15.83
2017-09-25T13:36:34.089Z,15.86
2017-09-25T13:37:42.920Z,15.83
2017-09-25T13:38:51.760Z,15.84
2017-09-25T13:40:00.592Z,15.84
2017-09-25T13:41:09.430Z,15.75
2017-09-25T13:42:18.266Z,15.78
2017-09-25T13:43:27.105Z,15.68
2017-09-25T13:44:35.938Z,15.72
2017-09-25T13:45:44.778Z,15.64
2017-09-25T13:46:53.609Z,15.65
2017-09-25T13:48:02.443Z,15.68
2017-09-25T13:49:11.282Z,15.75
2017-09-25T13:50:20.122Z,15.69
2017-09-25T13:51:28.954Z,15.78
2017-09-25T13:52:37.792Z,15.72
2017-09-25T13:53:46.622Z,15.78
2017-09-25T13:54:55.459Z,15.74
2017-09-25T13:56:04.634Z,15.75
2017-09-25T13:57:13.802Z,15.89
2017-09-25T13:58:22.637Z,15.89
2017-09-25T14:03:20.624Z,15.92
2017-09-25T14:04:29.459Z,15.89
2017-09-25T14:05:38.301Z,15.97
2017-09-25T14:06:47.136Z,15.92
2017-09-25T14:07:55.971Z,16.05
2017-09-25T14:09:04.806Z,16.09
2017-09-25T14:10:13.641Z,16.02
2017-09-25T14:11:22.478Z,16.04
2017-09-25T14:12:31.312Z,16
2017-09-25T14:13:40.153Z,16.02
2017-09-25T14:14:48.987Z,16
2017-09-25T14:15:57.819Z,16.01
2017-09-25T14:17:06.658Z,15.96
2017-09-25T14:18:15.492Z,15.97
2017-09-25T14:19:24.332Z,16.01
2017-09-25T14:20:33.169Z,16.08
2017-09-25T14:21:42.005Z,16.17
2017-09-25T14:22:50.843Z,16.12
2017-09-25T14:23:59.679Z,16.12
2017-09-25T14:25:08.519Z,16.14
2017-09-25T14:26:17.350Z,16.14
2017-09-25T14:27:26.180Z,16.2
2017-09-25T14:28:35.016Z,16.11
2017-09-25T14:29:43.854Z,16.23
2017-09-25T14:30:52.694Z,16.21
2017-09-25T14:32:01.530Z,16.23
2017-09-25T14:33:10.365Z,16.21
2017-09-25T14:34:19.195Z,16.12
2017-09-25T14:35:28.035Z,16.21
2017-09-25T14:36:36.873Z,16.24
2017-09-25T14:37:45.708Z,16.31
2017-09-25T14:38:54.544Z,16.34
2017-09-25T14:40:03.380Z,16.3
2017-09-25T14:41:12.223Z,16.33
2017-09-25T14:42:21.396Z,16.33
2017-09-25T14:43:30.238Z,16.35
2017-09-25T14:44:39.070Z,16.31
2017-09-25T14:45:47.904Z,16.28
2017-09-25T14:46:56.742Z,16.28
2017-09-25T14:48:05.581Z,16.35
2017-09-25T14:49:14.424Z,16.35
2017-09-25T14:50:23.261Z,16.34
2017-09-25T14:51:32.093Z,16.3
2017-09-25T14:52:40.930Z,16.34
2017-09-25T14:53:49.766Z,16.33